Time;durP1;ratioP1;P1;durP2;ratioP2;P2;SDS_P1;SDS_P2;PMS_P1;PMS_P2;Temp;Humidity;BMP_temperature;BMP_pressure;BME280_temperature;BME280_humidity;BME280_pressure;Samples;Min_cycle;Max_cycle;Signal;HPM_P1;HPM_P2
2020/12/31 12:13:57;;;;;;;10.35;5.75;;;;;;;17.43;33.33;97381.66;5131892;27;20354;-80
2020/12/31 12:16:23;;;;;;;12.50;6.75;;;;;;;19.81;27.27;97381.44;5118557;28;20027;-82
2020/12/31 12:18:49;;;;;;;7.35;3.90;;;;;;;23.79;22.77;97368.41;5100219;28;20055;-81
2020/12/31 12:21:19;;;;;;;9.07;4.47;;;;;;;25.57;19.84;97372.97;5119139;28;20436;-81
2020/12/31 12:23:45;;;;;;;4.60;2.72;;;;;;;26.23;18.67;97358.25;5118177;27;20115;-82
2020/12/31 12:26:11;;;;;;;6.18;2.97;;;;;;;27.12;17.96;97364.38;5122132;28;20432;-81
2020/12/31 12:28:38;;;;;;;8.45;4.03;;;;;;;26.66;18.10;97363.59;5125364;28;20023;-81
2020/12/31 12:31:04;;;;;;;9.43;4.45;;;;;;;25.85;18.96;97372.63;5102542;28;20089;-81
2020/12/31 12:33:30;;;;;;;11.13;4.65;;;;;;;26.34;18.43;97354.97;5129279;27;20038;-84
2020/12/31 12:35:56;;;;;;;7.82;3.90;;;;;;;26.87;17.97;97353.44;5102055;28;20079;-83
2020/12/31 12:38:22;;;;;;;8.10;4.43;;;;;;;27.50;17.45;97346.16;5120648;28;20027;-83
2020/12/31 12:40:48;;;;;;;6.05;3.15;;;;;;;27.74;16.91;97350.63;5120583;28;20036;-83
2020/12/31 12:43:14;;;;;;;10.00;3.22;;;;;;;28.22;16.44;97345.06;5124017;28;20042;-82
2020/12/31 12:45:40;;;;;;;6.70;3.65;;;;;;;27.22;17.09;97343.38;5119528;27;20122;-83
2020/12/31 12:48:06;;;;;;;9.18;4.00;;;;;;;27.12;17.25;97341.06;5126228;27;20059;-83
2020/12/31 12:50:32;;;;;;;7.20;3.42;;;;;;;27.20;16.84;97343.09;5124676;27;20038;-83
2020/12/31 12:52:58;;;;;;;7.10;3.60;;;;;;;27.76;16.77;97350.13;5128788;28;20031;-83
2020/12/31 12:55:24;;;;;;;4.38;2.30;;;;;;;28.36;16.13;97345.13;5122803;28;20119;-82
2020/12/31 12:57:50;;;;;;;5.93;3.25;;;;;;;28.55;15.55;97348.59;5106476;28;20071;-82
2020/12/31 13:00:17;;;;;;;7.25;3.55;;;;;;;28.29;15.76;97350.34;5121027;28;20084;-83
2020/12/31 13:02:43;;;;;;;4.93;2.70;;;;;;;28.50;15.81;97344.41;5107025;28;20084;-83
2020/12/31 13:05:09;;;;;;;8.65;4.03;;;;;;;28.71;15.29;97353.84;5122822;27;20073;-82
2020/12/31 13:07:35;;;;;;;5.68;2.72;;;;;;;28.92;15.03;97349.91;5113065;28;20027;-83
2020/12/31 13:10:02;;;;;;;9.57;3.72;;;;;;;29.07;15.07;97355.56;5124054;28;20080;-83
2020/12/31 13:12:30;;;;;;;5.90;2.78;;;;;;;29.25;14.79;97355.44;5108197;28;20054;-83
2020/12/31 13:14:56;;;;;;;8.15;3.20;;;;;;;29.15;15.02;97360.34;5118710;28;20122;-83
2020/12/31 13:17:22;;;;;;;8.38;4.15;;;;;;;28.88;15.30;97357.00;5115792;28;20035;-83
2020/12/31 13:19:48;;;;;;;9.70;3.75;;;;;;;28.98;15.07;97359.28;5118723;28;20035;-83
2020/12/31 13:22:15;;;;;;;8.63;4.85;;;;;;;28.63;15.07;97349.84;5116806;28;20058;-83
2020/12/31 13:24:41;;;;;;;6.97;3.35;;;;;;;28.37;15.49;97348.75;5108751;28;20491;-83
2020/12/31 13:27:07;;;;;;;7.45;3.75;;;;;;;28.18;15.55;97350.09;5093472;28;20119;-83
2020/12/31 13:29:33;;;;;;;7.55;3.45;;;;;;;28.29;15.75;97350.34;5109772;28;20035;-83
2020/12/31 13:31:59;;;;;;;5.57;3.03;;;;;;;27.60;16.13;97353.34;5113149;28;20036;-82
2020/12/31 13:34:25;;;;;;;8.13;4.18;;;;;;;27.16;16.38;97352.97;5105462;28;20039;-83
2020/12/31 13:36:52;;;;;;;13.25;6.25;;;;;;;26.24;17.09;97359.00;5111252;28;20028;-82
2020/12/31 13:39:18;;;;;;;9.32;4.13;;;;;;;26.36;16.78;97358.09;5104120;28;20036;-83
2020/12/31 13:41:45;;;;;;;5.88;2.85;;;;;;;26.56;16.63;97356.41;5104538;28;20031;-82
2020/12/31 13:44:11;;;;;;;10.27;4.43;;;;;;;27.04;16.29;97348.28;5102004;28;20111;-82
2020/12/31 13:46:39;;;;;;;9.05;3.88;;;;;;;27.29;16.10;97350.72;5101097;28;20027;-83
2020/12/31 13:49:05;;;;;;;11.65;4.80;;;;;;;27.82;15.94;97348.25;5096637;28;20383;-82
2020/12/31 13:51:31;;;;;;;7.15;4.05;;;;;;;27.68;15.66;97348.94;5078634;28;20387;-82
2020/12/31 13:53:57;;;;;;;6.10;3.28;;;;;;;27.80;15.63;97359.19;5105666;28;20056;-82
2020/12/31 13:56:24;;;;;;;10.52;4.50;;;;;;;27.82;15.48;97354.66;5102282;28;20480;-82
2020/12/31 13:58:51;;;;;;;8.77;4.10;;;;;;;27.99;15.60;97353.03;5108096;28;20032;-82
2020/12/31 14:01:18;;;;;;;10.85;4.22;;;;;;;28.40;15.17;97348.53;5109779;28;20059;-82
2020/12/31 14:03:44;;;;;;;10.80;4.28;;;;;;;28.14;15.34;97347.47;5106536;28;20031;-82
2020/12/31 14:06:11;;;;;;;10.68;4.88;;;;;;;28.38;14.97;97353.13;5112796;28;20483;-82
2020/12/31 14:08:37;;;;;;;8.45;3.47;;;;;;;28.36;14.84;97347.94;5108924;28;20106;-83
2020/12/31 14:11:04;;;;;;;9.05;3.92;;;;;;;28.31;14.91;97356.31;5111415;28;20039;-82
2020/12/31 14:13:30;;;;;;;8.57;3.30;;;;;;;28.25;14.86;97344.91;5108946;28;20091;-83
2020/12/31 14:15:56;;;;;;;8.68;3.88;;;;;;;28.52;14.87;97353.16;5108060;28;20040;-82
2020/12/31 14:18:22;;;;;;;9.63;4.35;;;;;;;28.64;14.50;97354.22;5111477;28;20043;-83
2020/12/31 14:20:48;;;;;;;8.25;3.90;;;;;;;28.60;14.55;97348.75;5114591;28;20093;-83
2020/12/31 14:23:14;;;;;;;7.82;3.45;;;;;;;28.64;14.67;97343.69;5107528;28;20097;-82
2020/12/31 14:25:41;;;;;;;8.20;4.50;;;;;;;28.55;14.84;97343.75;5106138;28;20129;-84
2020/12/31 14:28:07;;;;;;;11.38;5.32;;;;;;;28.39;15.04;97340.56;5114123;28;20115;-83
2020/12/31 14:30:33;;;;;;;9.95;4.78;;;;;;;28.07;15.52;97347.84;5114660;28;20490;-83
2020/12/31 14:32:59;;;;;;;9.15;4.38;;;;;;;27.77;15.72;97346.06;5109167;27;20067;-83
2020/12/31 14:35:25;;;;;;;10.85;3.70;;;;;;;27.90;15.55;97349.44;5105453;28;20035;-82
2020/12/31 14:37:51;;;;;;;8.48;3.75;;;;;;;28.08;15.18;97347.34;5110347;28;20055;-83
2020/12/31 14:40:17;;;;;;;9.35;4.70;;;;;;;27.96;15.46;97348.31;5086168;28;20031;-84
2020/12/31 14:42:43;;;;;;;7.35;2.97;;;;;;;27.82;15.50;97351.06;5106395;28;20040;-82
2020/12/31 14:45:10;;;;;;;8.70;3.70;;;;;;;27.68;15.55;97346.13;5107735;28;20043;-82
2020/12/31 14:47:36;;;;;;;8.68;4.65;;;;;;;27.28;15.79;97343.53;5111513;28;20535;-81
2020/12/31 14:50:04;;;;;;;9.90;4.03;;;;;;;27.16;15.94;97347.31;5111385;28;20031;-81
2020/12/31 14:52:30;;;;;;;9.02;4.32;;;;;;;27.02;16.16;97354.41;5104330;28;20039;-81
2020/12/31 14:54:56;;;;;;;11.48;5.40;;;;;;;27.21;15.64;97344.63;5107888;28;20491;-81
2020/12/31 14:57:22;;;;;;;14.18;6.05;;;;;;;27.28;15.41;97344.31;5113225;28;20039;-81
2020/12/31 14:59:48;;;;;;;11.93;5.38;;;;;;;27.57;15.43;97349.44;5103642;28;20032;-81
2020/12/31 15:02:14;;;;;;;15.13;6.32;;;;;;;27.77;15.20;97355.28;5098359;28;20046;-80
2020/12/31 15:04:40;;;;;;;14.48;5.70;;;;;;;27.72;15.13;97350.31;5106178;28;20032;-81
2020/12/31 15:07:06;;;;;;;18.80;7.22;;;;;;;27.79;15.02;97355.63;5102343;28;20036;-81
2020/12/31 15:09:32;;;;;;;10.88;4.97;;;;;;;27.80;15.31;97360.00;5110408;28;20048;-81
2020/12/31 15:11:58;;;;;;;14.73;5.95;;;;;;;27.84;14.99;97360.59;5111868;28;20055;-83
2020/12/31 15:14:25;;;;;;;7.95;3.75;;;;;;;27.92;14.72;97361.03;5091835;28;20047;-81
2020/12/31 15:16:52;;;;;;;15.73;6.80;;;;;;;27.97;14.91;97355.53;5084402;28;20028;-81
2020/12/31 15:19:18;;;;;;;12.38;5.85;;;;;;;27.86;15.15;97355.28;5103952;28;20023;-81
2020/12/31 15:21:44;;;;;;;13.35;5.35;;;;;;;27.13;15.54;97359.53;5108722;28;20028;-81
2020/12/31 15:24:10;;;;;;;14.32;6.03;;;;;;;26.49;16.57;97365.16;5110898;28;20118;-81
2020/12/31 15:26:39;;;;;;;16.52;7.30;;;;;;;26.63;16.11;97367.34;5107951;28;20032;-81
2020/12/31 15:29:05;;;;;;;10.27;5.30;;;;;;;26.95;15.63;97368.00;5087556;28;20035;-81
2020/12/31 15:31:38;;;;;;;15.55;6.50;;;;;;;27.05;15.51;97358.31;5109851;28;20082;-82
2020/12/31 15:34:05;;;;;;;15.05;6.90;;;;;;;27.19;15.69;97361.22;5111232;28;20602;-82
2020/12/31 15:36:31;;;;;;;20.35;9.73;;;;;;;27.06;15.58;97362.66;5093663;28;20032;-81
2020/12/31 15:38:58;;;;;;;17.10;9.05;;;;;;;27.06;15.44;97366.28;5111826;28;20019;-82
2020/12/31 15:41:24;;;;;;;26.02;11.73;;;;;;;26.86;15.52;97368.81;5111460;28;20055;-82
2020/12/31 15:43:50;;;;;;;18.85;8.82;;;;;;;26.78;15.72;97361.13;5108084;28;20410;-82
2020/12/31 15:46:16;;;;;;;19.23;9.85;;;;;;;26.71;15.60;97357.34;5109911;28;20036;-82
2020/12/31 15:48:42;;;;;;;16.13;6.32;;;;;;;25.95;16.49;97362.97;5110743;28;20031;-82
2020/12/31 15:51:08;;;;;;;13.63;6.10;;;;;;;26.13;15.99;97372.75;5090304;28;20167;-82
2020/12/31 15:53:34;;;;;;;15.73;7.15;;;;;;;26.59;15.65;97371.56;5107178;28;20483;-82
2020/12/31 15:56:00;;;;;;;24.30;11.07;;;;;;;26.67;15.28;97368.00;5112300;28;20031;-82
2020/12/31 15:58:26;;;;;;;15.77;7.88;;;;;;;26.56;15.16;97364.84;5082755;28;20038;-81
2020/12/31 16:00:52;;;;;;;20.50;10.32;;;;;;;26.79;15.08;97368.34;5104046;28;20149;-82
2020/12/31 16:03:18;;;;;;;19.15;8.18;;;;;;;26.63;15.71;97361.72;5107728;28;20059;-82
2020/12/31 16:05:48;;;;;;;16.08;8.80;;;;;;;26.46;15.51;97366.09;5091643;28;20032;-82
2020/12/31 16:08:15;;;;;;;16.25;7.45;;;;;;;26.36;15.23;97367.31;5105817;28;20043;-82
2020/12/31 16:10:42;;;;;;;22.35;9.82;;;;;;;26.53;15.27;97367.81;5108311;28;20032;-83
2020/12/31 16:13:08;;;;;;;17.15;9.02;;;;;;;26.39;15.20;97362.81;5106871;28;20032;-82
2020/12/31 16:15:34;;;;;;;14.45;7.68;;;;;;;26.33;15.10;97364.66;5109144;28;20040;-82
2020/12/31 16:18:01;;;;;;;21.38;10.15;;;;;;;26.36;14.93;97369.34;5095322;28;20398;-82
2020/12/31 16:20:27;;;;;;;18.70;8.80;;;;;;;26.33;15.22;97368.25;5107035;28;20035;-83
2020/12/31 16:22:53;;;;;;;20.17;10.30;;;;;;;26.50;14.90;97374.38;5106564;28;20114;-82
2020/12/31 16:25:19;;;;;;;19.83;9.30;;;;;;;25.89;15.47;97376.09;5104935;28;20498;-82
2020/12/31 16:27:46;;;;;;;20.67;10.05;;;;;;;25.59;15.59;97371.28;5106284;28;20106;-85
2020/12/31 16:30:13;;;;;;;20.27;10.80;;;;;;;25.51;15.72;97372.00;5110476;28;20032;-83
2020/12/31 16:32:46;;;;;;;17.42;8.73;;;;;;;25.46;15.73;97376.22;5108426;28;20039;-83
2020/12/31 16:35:12;;;;;;;22.65;9.70;;;;;;;25.87;15.30;97370.13;5106333;28;20059;-83
2020/12/31 16:37:38;;;;;;;23.15;11.35;;;;;;;25.63;15.48;97379.53;5107526;28;20031;-82
2020/12/31 16:40:05;;;;;;;20.55;10.35;;;;;;;25.56;15.34;97377.00;5108884;28;20028;-82
2020/12/31 16:42:33;;;;;;;25.98;11.45;;;;;;;25.58;14.93;97375.31;5108255;28;20039;-83
2020/12/31 16:44:59;;;;;;;22.92;10.35;;;;;;;25.78;14.96;97386.19;5098066;28;20036;-83
2020/12/31 16:47:25;;;;;;;29.38;14.23;;;;;;;25.90;14.96;97386.09;5103886;28;20368;-83
2020/12/31 16:49:52;;;;;;;22.35;11.13;;;;;;;25.80;14.88;97384.47;5102417;28;20039;-84
2020/12/31 16:52:20;;;;;;;27.38;12.07;;;;;;;25.86;14.60;97385.44;5104217;28;20028;-81
2020/12/31 16:54:46;;;;;;;30.73;13.73;;;;;;;25.94;14.66;97383.13;5102600;28;20031;-84
2020/12/31 16:57:12;;;;;;;32.30;14.15;;;;;;;25.41;15.22;97373.97;5085217;28;20028;-83
2020/12/31 16:59:38;;;;;;;25.88;11.95;;;;;;;25.59;15.08;97379.69;5107934;28;20041;-84
2020/12/31 17:02:04;;;;;;;25.10;11.32;;;;;;;25.60;15.13;97383.31;5110177;28;20047;-81
2020/12/31 17:04:31;;;;;;;35.10;16.17;;;;;;;25.69;15.12;97380.53;5105887;28;20071;-83
2020/12/31 17:06:58;;;;;;;39.47;15.43;;;;;;;25.52;15.40;97387.63;5112278;28;20034;-83
2020/12/31 17:09:24;;;;;;;26.95;11.80;;;;;;;25.66;15.09;97381.44;5110523;28;20035;-82
2020/12/31 17:11:51;;;;;;;24.13;11.48;;;;;;;25.70;15.12;97382.88;5092957;28;20541;-83
2020/12/31 17:14:20;;;;;;;39.53;16.08;;;;;;;26.01;14.74;97378.00;5110753;28;20062;-83
2020/12/31 17:16:47;;;;;;;38.85;16.10;;;;;;;25.46;15.18;97392.28;5109067;28;20036;-82
2020/12/31 17:19:17;;;;;;;29.83;12.93;;;;;;;25.31;15.22;97392.78;5111647;28;20032;-86
2020/12/31 17:21:43;;;;;;;25.60;10.88;;;;;;;25.72;15.21;97390.88;5107735;28;20047;-83
2020/12/31 17:24:11;;;;;;;21.75;10.02;;;;;;;26.15;14.77;97387.13;5112739;28;20088;-82
2020/12/31 17:26:39;;;;;;;31.40;13.40;;;;;;;26.31;14.73;97378.41;5111098;28;20040;-83
2020/12/31 17:29:06;;;;;;;19.52;9.15;;;;;;;26.41;14.60;97377.97;5114168;28;20061;-82
2020/12/31 17:31:33;;;;;;;24.15;11.02;;;;;;;26.44;14.69;97388.28;5115719;28;20023;-83
2020/12/31 17:33:59;;;;;;;30.30;13.80;;;;;;;26.46;14.50;97383.00;5108880;28;20089;-83
2020/12/31 17:36:25;;;;;;;23.67;10.93;;;;;;;26.57;14.68;97390.97;5095762;28;20031;-83
2020/12/31 17:38:52;;;;;;;28.23;13.23;;;;;;;26.69;14.26;97388.03;5116238;28;20068;-82
2020/12/31 17:41:20;;;;;;;39.67;15.20;;;;;;;26.79;14.73;97393.69;5115516;28;20024;-83
2020/12/31 17:43:47;;;;;;;33.28;13.05;;;;;;;26.51;14.74;97399.25;5101066;28;20055;-82
2020/12/31 17:46:15;;;;;;;34.40;14.10;;;;;;;26.05;15.01;97400.34;5102268;28;20042;-81
2020/12/31 17:48:42;;;;;;;21.08;9.60;;;;;;;25.98;15.22;97395.00;5102761;28;20038;-82
2020/12/31 17:51:15;;;;;;;30.58;12.68;;;;;;;26.14;15.07;97391.22;5107625;28;20521;-82
2020/12/31 17:53:42;;;;;;;26.75;11.95;;;;;;;26.43;14.69;97385.94;5106920;28;20042;-82
2020/12/31 17:56:13;;;;;;;37.10;15.75;;;;;;;26.63;14.53;97389.88;5105781;28;20031;-82
2020/12/31 17:58:39;;;;;;;33.63;14.02;;;;;;;26.79;14.44;97394.47;5104875;28;20020;-82
2020/12/31 18:01:06;;;;;;;39.53;15.57;;;;;;;26.22;14.80;97393.25;5108010;28;20038;-81
2020/12/31 18:03:32;;;;;;;38.85;13.80;;;;;;;25.57;15.67;97392.66;5103883;28;20065;-82
2020/12/31 18:05:58;;;;;;;36.83;14.25;;;;;;;25.24;15.75;97392.28;5111047;28;22086;-82
2020/12/31 18:08:24;;;;;;;29.63;10.93;;;;;;;25.29;15.58;97392.47;5103328;28;20380;-82
2020/12/31 18:10:52;;;;;;;36.33;14.85;;;;;;;25.86;15.26;97381.84;5110898;28;20031;-81
2020/12/31 18:13:19;;;;;;;27.40;12.27;;;;;;;26.39;14.77;97374.84;5107459;28;20184;-81
2020/12/31 18:15:45;;;;;;;27.25;11.80;;;;;;;26.73;14.66;97374.56;5098129;28;20035;-82
2020/12/31 18:18:11;;;;;;;43.10;16.33;;;;;;;26.36;14.74;97370.13;5108656;27;20024;-83
2020/12/31 18:20:37;;;;;;;31.83;13.23;;;;;;;25.58;15.95;97377.38;5093948;28;20031;-82
2020/12/31 18:23:06;;;;;;;35.00;15.50;;;;;;;25.20;15.98;97371.97;5095359;28;20387;-82
2020/12/31 18:25:32;;;;;;;31.30;10.52;;;;;;;25.63;15.39;97376.75;5098659;28;20452;-83
2020/12/31 18:27:58;;;;;;;40.78;18.48;;;;;;;25.89;15.55;97378.91;5098567;28;20429;-82
2020/12/31 18:30:24;;;;;;;41.28;17.98;;;;;;;25.24;15.90;97378.22;5098859;28;20078;-83
2020/12/31 18:32:50;;;;;;;25.02;11.80;;;;;;;25.21;16.07;97382.72;5103223;28;20042;-82
2020/12/31 18:35:16;;;;;;;30.00;12.63;;;;;;;25.52;15.82;97384.81;5106763;28;20392;-82
2020/12/31 18:37:46;;;;;;;31.88;15.07;;;;;;;25.35;16.31;97385.00;5102475;28;20030;-81
2020/12/31 18:40:13;;;;;;;34.30;15.25;;;;;;;24.60;17.22;97385.34;5100107;28;20081;-82
2020/12/31 18:42:44;;;;;;;38.92;16.65;;;;;;;24.66;17.01;97386.34;5093805;28;20037;-82
2020/12/31 18:45:12;;;;;;;33.60;15.80;;;;;;;24.74;16.90;97385.63;5085973;28;20032;-81
2020/12/31 18:47:43;;;;;;;26.73;13.55;;;;;;;25.02;16.41;97383.84;5105660;28;20027;-81
2020/12/31 18:50:10;;;;;;;30.45;13.82;;;;;;;25.31;16.37;97380.75;5112320;28;20547;-82
2020/12/31 18:52:37;;;;;;;34.88;16.08;;;;;;;25.45;16.36;97383.06;5101318;28;20036;-82
2020/12/31 18:55:04;;;;;;;32.80;16.73;;;;;;;25.34;16.18;97385.47;5086352;28;20180;-82
2020/12/31 18:57:30;;;;;;;41.72;16.38;;;;;;;25.54;15.99;97383.09;5082046;28;20056;-82
2020/12/31 18:59:56;;;;;;;27.45;12.23;;;;;;;25.92;15.69;97383.59;5098439;28;20040;-81
2020/12/31 19:02:22;;;;;;;29.73;13.20;;;;;;;26.50;15.04;97377.97;5109373;28;20039;-81
2020/12/31 19:04:48;;;;;;;33.10;15.18;;;;;;;26.61;15.31;97380.31;5104893;28;20085;-81
2020/12/31 19:07:14;;;;;;;31.55;14.35;;;;;;;26.29;15.44;97375.28;5114455;28;20093;-82
2020/12/31 19:09:44;;;;;;;31.25;13.75;;;;;;;26.08;15.60;97376.91;5113428;28;20038;-81
2020/12/31 19:12:10;;;;;;;27.55;12.98;;;;;;;26.54;15.00;97372.97;5111455;28;20328;-82
2020/12/31 19:14:36;;;;;;;24.80;11.48;;;;;;;26.98;14.82;97373.47;5101693;28;20054;-81
2020/12/31 19:17:02;;;;;;;20.55;9.75;;;;;;;27.24;14.61;97368.28;5100594;28;20685;-82
2020/12/31 19:19:28;;;;;;;27.83;12.77;;;;;;;27.38;14.40;97376.91;5102016;28;20032;-81
2020/12/31 19:21:54;;;;;;;22.52;11.25;;;;;;;27.42;14.43;97380.31;5091981;28;20063;-82
2020/12/31 19:24:20;;;;;;;21.80;9.80;;;;;;;27.50;14.57;97380.78;5095780;28;20065;-81
2020/12/31 19:26:47;;;;;;;19.83;8.90;;;;;;;27.62;14.43;97374.16;5102076;28;20043;-82
2020/12/31 19:29:14;;;;;;;18.75;7.75;;;;;;;27.73;14.23;97382.91;5114397;28;20028;-83
2020/12/31 19:31:42;;;;;;;23.70;11.57;;;;;;;27.63;14.26;97374.97;5098488;28;20492;-82
2020/12/31 19:34:12;;;;;;;18.75;9.13;;;;;;;27.55;14.54;97373.72;5097953;28;20081;-82
2020/12/31 19:36:44;;;;;;;26.98;12.98;;;;;;;27.47;14.66;97375.31;5105775;28;20464;-82
2020/12/31 19:39:14;;;;;;;23.88;10.25;;;;;;;27.42;14.52;97373.94;5098578;28;20506;-81
2020/12/31 19:41:43;;;;;;;21.87;10.03;;;;;;;27.20;14.61;97373.28;5111190;28;20556;-83
2020/12/31 19:44:12;;;;;;;27.17;11.93;;;;;;;27.07;14.59;97370.66;5103804;28;20065;-83
2020/12/31 19:46:41;;;;;;;18.60;9.38;;;;;;;26.45;15.56;97377.81;5100093;28;20513;-83
2020/12/31 19:49:08;;;;;;;31.83;13.48;;;;;;;25.82;16.18;97382.00;5111201;28;20028;-82
2020/12/31 19:51:36;;;;;;;27.13;11.80;;;;;;;25.07;16.87;97372.03;5105926;28;20059;-83
2020/12/31 19:54:02;;;;;;;27.42;12.85;;;;;;;25.23;16.55;97373.84;5104764;28;20438;-82
2020/12/31 19:56:29;;;;;;;25.58;12.27;;;;;;;25.44;16.59;97381.47;5101191;28;20032;-82
2020/12/31 19:58:55;;;;;;;23.30;10.75;;;;;;;25.49;16.49;97380.09;5100393;28;20058;-81
2020/12/31 20:01:25;;;;;;;22.15;10.45;;;;;;;25.53;16.21;97381.56;5095744;28;20069;-81
2020/12/31 20:03:52;;;;;;;19.50;8.82;;;;;;;26.01;15.70;97374.41;5100999;28;20497;-81
2020/12/31 20:06:20;;;;;;;18.27;8.52;;;;;;;25.91;16.05;97367.16;5099419;28;20364;-81
2020/12/31 20:08:47;;;;;;;18.10;9.73;;;;;;;24.92;16.96;97376.59;5099864;28;20032;-82
2020/12/31 20:11:13;;;;;;;22.20;11.63;;;;;;;25.05;16.83;97371.69;5104171;28;20050;-82
2020/12/31 20:13:39;;;;;;;18.88;9.60;;;;;;;25.01;16.98;97373.06;5099330;28;20135;-82
2020/12/31 20:16:09;;;;;;;26.15;13.25;;;;;;;24.77;17.16;97381.16;5103150;28;20043;-82
2020/12/31 20:18:36;;;;;;;16.33;8.38;;;;;;;24.75;17.30;97372.38;5095874;28;20038;-82
2020/12/31 20:21:06;;;;;;;16.58;7.85;;;;;;;25.24;16.50;97376.19;5102948;28;20110;-82
2020/12/31 20:23:32;;;;;;;28.47;9.87;;;;;;;25.36;16.55;97383.78;5097935;28;20036;-81
2020/12/31 20:25:58;;;;;;;14.68;6.95;;;;;;;25.28;16.61;97382.47;5103670;28;20050;-82
2020/12/31 20:28:24;;;;;;;13.90;6.07;;;;;;;25.85;15.86;97377.47;5104069;28;20034;-81
2020/12/31 20:30:50;;;;;;;17.45;8.10;;;;;;;25.79;16.31;97387.78;5103576;28;20043;-81
2020/12/31 20:33:17;;;;;;;19.05;8.88;;;;;;;25.94;16.09;97383.91;5103604;28;20036;-81
2020/12/31 20:35:43;;;;;;;10.45;5.22;;;;;;;26.19;15.71;97382.13;5106690;28;20115;-81
2020/12/31 20:38:09;;;;;;;11.60;5.43;;;;;;;26.60;15.18;97384.41;5108798;28;20023;-81
2020/12/31 20:40:35;;;;;;;16.98;8.32;;;;;;;26.73;14.91;97385.03;5108696;28;20043;-81
2020/12/31 20:43:01;;;;;;;15.38;6.85;;;;;;;26.57;15.24;97380.50;5106755;28;20059;-81
2020/12/31 20:45:27;;;;;;;17.77;7.15;;;;;;;26.43;15.19;97380.31;5107554;28;20114;-82
2020/12/31 20:47:54;;;;;;;10.00;4.78;;;;;;;26.37;15.42;97376.56;5112524;28;20082;-81
2020/12/31 20:50:20;;;;;;;14.77;6.82;;;;;;;26.06;15.75;97385.06;5109518;28;20024;-81
2020/12/31 20:52:46;;;;;;;12.35;5.28;;;;;;;25.68;16.14;97391.00;5106929;28;20092;-81
2020/12/31 20:55:12;;;;;;;18.77;7.47;;;;;;;25.32;16.56;97393.59;5107198;28;22255;-81
2020/12/31 20:57:38;;;;;;;21.15;9.60;;;;;;;24.32;17.44;97389.16;5091407;28;20045;-81
2020/12/31 21:00:05;;;;;;;19.35;8.88;;;;;;;24.74;16.98;97385.63;5086587;28;20030;-82
2020/12/31 21:02:31;;;;;;;18.50;7.13;;;;;;;25.38;16.44;97383.31;5102712;28;20083;-81
2020/12/31 21:04:57;;;;;;;12.63;6.82;;;;;;;25.56;16.06;97391.06;5106764;28;20032;-81
2020/12/31 21:07:23;;;;;;;16.27;7.40;;;;;;;25.71;16.02;97395.69;5106513;28;20491;-81
2020/12/31 21:09:49;;;;;;;15.13;6.90;;;;;;;25.71;16.01;97394.91;5102916;28;20024;-81
2020/12/31 21:12:16;;;;;;;19.05;7.47;;;;;;;25.45;16.10;97399.13;5096818;28;20040;-81
2020/12/31 21:14:42;;;;;;;15.35;5.78;;;;;;;25.55;16.02;97392.34;5104699;28;20131;-81
2020/12/31 21:17:08;;;;;;;15.63;7.10;;;;;;;25.39;16.07;97390.50;5094478;28;20028;-81
2020/12/31 21:19:34;;;;;;;17.27;8.30;;;;;;;25.38;16.35;97394.53;5095861;28;20032;-81
2020/12/31 21:22:00;;;;;;;11.82;5.25;;;;;;;25.35;16.10;97395.47;5103853;28;20043;-81
2020/12/31 21:24:26;;;;;;;12.02;5.63;;;;;;;25.26;16.09;97395.41;5106159;28;20422;-81
2020/12/31 21:26:54;;;;;;;15.85;7.30;;;;;;;25.48;16.21;97396.22;5097312;28;20449;-82
2020/12/31 21:29:21;;;;;;;11.77;6.07;;;;;;;25.92;15.60;97394.84;5100166;28;20089;-81
2020/12/31 21:31:47;;;;;;;14.40;6.22;;;;;;;25.82;16.03;97393.25;5103483;28;20039;-82
2020/12/31 21:34:13;;;;;;;18.98;8.18;;;;;;;25.84;15.77;97389.94;5101454;28;20384;-81
2020/12/31 21:36:40;;;;;;;17.23;7.32;;;;;;;25.85;15.78;97388.72;5099680;28;20040;-82
2020/12/31 21:39:08;;;;;;;13.23;6.30;;;;;;;25.88;15.63;97391.38;5098637;28;20035;-82
2020/12/31 21:41:35;;;;;;;12.88;5.85;;;;;;;25.83;15.65;97383.56;5095325;28;20024;-81
2020/12/31 21:44:02;;;;;;;14.45;6.93;;;;;;;25.46;16.12;97392.28;5101960;28;20058;-81
2020/12/31 21:46:34;;;;;;;13.02;6.45;;;;;;;25.75;15.67;97387.09;5100469;28;20499;-81
2020/12/31 21:49:02;;;;;;;17.33;8.15;;;;;;;26.06;15.49;97380.22;5098393;28;20036;-81
2020/12/31 21:51:32;;;;;;;17.17;7.22;;;;;;;25.35;16.17;97384.22;5095479;28;20044;-81
2020/12/31 21:53:58;;;;;;;15.90;6.78;;;;;;;25.09;16.49;97379.97;5090270;28;20393;-81
2020/12/31 21:56:24;;;;;;;19.00;9.25;;;;;;;23.78;17.74;97378.06;5095852;28;20480;-81
2020/12/31 21:58:51;;;;;;;22.23;10.85;;;;;;;21.82;19.67;97388.66;5095788;28;20088;-81
2020/12/31 22:01:18;;;;;;;13.57;6.97;;;;;;;22.83;18.90;97384.47;5099017;28;20043;-82
2020/12/31 22:03:45;;;;;;;14.48;6.18;;;;;;;23.58;18.04;97381.09;5102141;28;20035;-81
2020/12/31 22:06:12;;;;;;;21.20;9.10;;;;;;;23.96;17.74;97372.66;5080483;28;20032;-81
2020/12/31 22:08:39;;;;;;;13.90;6.63;;;;;;;24.15;17.52;97371.66;5099365;28;20035;-80
2020/12/31 22:11:06;;;;;;;15.60;6.95;;;;;;;24.32;17.01;97375.88;5096056;28;20043;-82
2020/12/31 22:13:32;;;;;;;14.13;6.47;;;;;;;24.93;16.62;97380.97;5105085;28;20044;-82
2020/12/31 22:15:58;;;;;;;18.50;7.95;;;;;;;24.88;16.73;97369.56;5104924;28;20441;-82
2020/12/31 22:18:26;;;;;;;21.35;10.68;;;;;;;24.01;17.33;97370.06;5095762;28;20445;-82
2020/12/31 22:20:52;;;;;;;18.83;8.98;;;;;;;23.92;17.53;97367.16;5095019;28;20096;-83
2020/12/31 22:23:18;;;;;;;13.43;6.45;;;;;;;24.46;17.08;97363.38;5111028;28;20043;-82
2020/12/31 22:25:45;;;;;;;25.90;11.65;;;;;;;23.64;17.62;97370.88;5109536;28;20031;-82
2020/12/31 22:28:14;;;;;;;14.35;6.90;;;;;;;23.86;17.57;97368.19;5109803;28;20115;-83
2020/12/31 22:30:41;;;;;;;17.20;8.80;;;;;;;22.41;19.11;97366.00;5114744;28;20479;-82
2020/12/31 22:33:08;;;;;;;15.07;7.78;;;;;;;22.36;19.30;97367.34;5106478;28;20035;-82
2020/12/31 22:35:36;;;;;;;16.95;7.25;;;;;;;23.03;18.54;97370.31;5095113;28;20028;-82
2020/12/31 22:38:03;;;;;;;16.00;7.50;;;;;;;23.21;18.40;97367.78;5115451;28;20047;-82
2020/12/31 22:40:29;;;;;;;15.38;7.03;;;;;;;23.75;17.73;97362.94;5112800;27;20035;-83
2020/12/31 22:42:55;;;;;;;13.55;5.72;;;;;;;24.61;16.78;97358.84;5102723;28;20509;-82
2020/12/31 22:45:22;;;;;;;17.08;8.35;;;;;;;24.97;16.45;97361.94;5100400;28;20100;-81
2020/12/31 22:47:53;;;;;;;18.73;8.40;;;;;;;25.06;16.45;97364.84;5099098;28;20024;-82
2020/12/31 22:50:20;;;;;;;13.60;6.28;;;;;;;25.10;16.28;97361.91;5097535;28;20038;-82
2020/12/31 22:52:48;;;;;;;12.23;5.88;;;;;;;25.55;15.99;97369.84;5094978;28;20040;-82
2020/12/31 22:55:14;;;;;;;13.35;6.40;;;;;;;26.00;15.37;97375.63;5101724;28;20066;-82
2020/12/31 22:57:41;;;;;;;14.05;5.97;;;;;;;26.04;15.43;97377.06;5094842;28;20032;-82
2020/12/31 23:00:10;;;;;;;13.73;6.97;;;;;;;26.17;15.20;97367.75;5102269;28;20039;-82
2020/12/31 23:02:36;;;;;;;22.98;11.05;;;;;;;23.69;17.36;97364.72;5113518;28;20124;-82
2020/12/31 23:05:04;;;;;;;16.27;7.40;;;;;;;22.87;18.48;97370.38;5107274;28;20108;-82
2020/12/31 23:07:30;;;;;;;12.32;5.90;;;;;;;23.71;17.61;97362.25;5108248;28;20036;-82
2020/12/31 23:09:56;;;;;;;15.82;7.93;;;;;;;24.24;17.18;97359.75;5106870;27;20940;-83
2020/12/31 23:12:23;;;;;;;15.00;6.45;;;;;;;24.88;16.35;97370.31;5091620;28;20063;-82
2020/12/31 23:14:49;;;;;;;22.25;10.02;;;;;;;24.14;16.96;97360.88;5105314;28;20468;-82
2020/12/31 23:17:15;;;;;;;17.48;7.88;;;;;;;23.41;18.01;97362.78;5102751;28;20103;-82
2020/12/31 23:19:42;;;;;;;15.07;6.97;;;;;;;23.62;17.78;97364.94;5098087;28;20036;-81
2020/12/31 23:22:10;;;;;;;19.80;7.38;;;;;;;24.14;17.43;97358.06;5076981;28;20035;-81
2020/12/31 23:24:36;;;;;;;23.90;10.35;;;;;;;24.62;16.67;97360.44;5112980;28;20016;-81
2020/12/31 23:27:02;;;;;;;19.90;8.20;;;;;;;24.75;16.55;97366.75;5110362;28;20028;-82
2020/12/31 23:29:28;;;;;;;30.90;12.30;;;;;;;24.66;16.72;97352.66;5106140;28;20406;-81
2020/12/31 23:31:54;;;;;;;45.85;19.83;;;;;;;25.02;16.39;97360.59;5108503;28;20047;-82
2020/12/31 23:34:20;;;;;;;47.55;23.00;;;;;;;25.46;15.76;97356.53;5105995;28;20036;-82